createdAt,value
2019-03-23T00:00:12.188Z,60.90
2019-03-23T00:02:38.343Z,73.43
2019-03-23T00:05:06.648Z,121.10
2019-03-23T00:07:32.808Z,82.53
2019-03-23T00:09:58.976Z,24.53
2019-03-23T00:12:25.151Z,25.60
2019-03-23T00:14:51.407Z,65.63
2019-03-23T00:17:17.579Z,55.00
2019-03-23T00:19:43.831Z,25.70
2019-03-23T00:22:10.093Z,20.93
2019-03-23T00:24:36.262Z,20.87
2019-03-23T00:27:02.450Z,17.07
2019-03-23T00:29:28.615Z,22.63
2019-03-23T00:31:54.780Z,17.07
2019-03-23T00:34:21.082Z,20.63
2019-03-23T00:36:47.249Z,22.77
2019-03-23T00:39:13.407Z,16.33
2019-03-23T00:41:39.703Z,16.60
2019-03-23T00:44:07.488Z,14.83
2019-03-23T00:46:33.838Z,17.23
2019-03-23T00:49:00.032Z,16.90
2019-03-23T00:51:26.202Z,17.30
2019-03-23T00:53:52.367Z,17.73
2019-03-23T00:56:18.564Z,25.43
2019-03-23T00:58:44.837Z,27.03
2019-03-23T01:01:11.289Z,27.23
2019-03-23T01:03:37.483Z,30.13
2019-03-23T01:06:03.644Z,28.43
2019-03-23T01:08:29.816Z,25.63
2019-03-23T01:10:56.104Z,25.97
2019-03-23T01:13:22.262Z,32.63
2019-03-23T01:15:48.415Z,33.93
2019-03-23T01:18:14.606Z,36.33
2019-03-23T01:20:49.361Z,24.57
2019-03-23T01:23:09.802Z,26.37
2019-03-23T01:25:36.002Z,28.77
2019-03-23T01:28:02.258Z,24.93
2019-03-23T01:30:28.461Z,26.57
2019-03-23T01:32:54.631Z,30.17
2019-03-23T01:35:20.891Z,25.20
2019-03-23T01:37:47.099Z,23.90
2019-03-23T01:40:13.296Z,21.33
2019-03-23T01:42:39.459Z,20.77
2019-03-23T01:45:08.724Z,29.83
2019-03-23T01:47:34.924Z,21.60
2019-03-23T01:50:01.079Z,23.77
2019-03-23T01:52:27.238Z,26.30
2019-03-23T01:54:53.441Z,26.03
2019-03-23T01:57:19.602Z,25.23
2019-03-23T01:59:45.760Z,27.33
2019-03-23T02:02:11.956Z,25.00
2019-03-23T02:04:38.121Z,26.30
2019-03-23T02:07:13.387Z,27.73
2019-03-23T02:09:36.564Z,29.57
2019-03-23T02:12:02.822Z,29.67
2019-03-23T02:14:28.982Z,30.87
2019-03-23T02:16:55.173Z,25.37
2019-03-23T02:19:21.372Z,27.50
2019-03-23T02:21:47.531Z,26.23
2019-03-23T02:24:13.732Z,27.27
2019-03-23T02:26:40.344Z,24.50
2019-03-23T02:29:06.506Z,24.10
2019-03-23T02:31:32.712Z,23.67
2019-03-23T02:33:58.871Z,29.00
2019-03-23T02:36:25.037Z,29.33
2019-03-23T02:38:51.330Z,25.70
2019-03-23T02:41:17.588Z,35.87
2019-03-23T02:43:43.753Z,23.17
2019-03-23T02:46:09.959Z,27.03
2019-03-23T02:48:36.219Z,21.93
2019-03-23T02:51:02.374Z,23.10
2019-03-23T02:53:28.661Z,31.07
2019-03-23T02:55:54.829Z,26.73
2019-03-23T02:58:20.992Z,24.13
2019-03-23T03:00:47.191Z,21.97
2019-03-23T03:03:13.460Z,25.47
2019-03-23T03:05:39.716Z,27.17
2019-03-23T03:08:05.906Z,21.03
2019-03-23T03:10:38.998Z,22.03
2019-03-23T03:13:05.361Z,26.83
2019-03-23T03:15:31.649Z,30.73
2019-03-23T03:17:57.801Z,21.63
2019-03-23T03:20:23.960Z,20.93
2019-03-23T03:22:50.316Z,20.90
2019-03-23T03:25:16.476Z,21.47
2019-03-23T03:27:42.736Z,20.33
2019-03-23T03:30:10.155Z,25.97
2019-03-23T03:32:36.316Z,20.93
2019-03-23T03:35:03.672Z,24.87
2019-03-23T03:37:29.866Z,22.67
2019-03-23T03:39:56.153Z,22.13
2019-03-23T03:42:22.332Z,21.27
2019-03-23T03:44:48.506Z,22.87
2019-03-23T03:47:14.660Z,38.07
2019-03-23T03:49:40.834Z,32.37
2019-03-23T03:52:07.006Z,34.53
2019-03-23T03:54:33.166Z,30.10
2019-03-23T03:56:59.426Z,23.33
2019-03-23T03:59:25.729Z,29.90
2019-03-23T04:01:51.894Z,24.83
2019-03-23T04:04:18.045Z,28.20
2019-03-23T04:06:44.338Z,34.83
2019-03-23T04:09:10.605Z,31.03
2019-03-23T04:11:36.766Z,29.67
2019-03-23T04:14:02.947Z,37.63
2019-03-23T04:16:29.104Z,31.53
2019-03-23T04:18:55.266Z,28.03
2019-03-23T04:21:21.460Z,27.67
2019-03-23T04:23:49.301Z,34.87
2019-03-23T04:26:15.454Z,26.83
2019-03-23T04:28:41.646Z,30.63
2019-03-23T04:31:07.817Z,26.37
2019-03-23T04:33:34.080Z,31.07
2019-03-23T04:36:00.273Z,22.87
2019-03-23T04:38:26.445Z,28.70
2019-03-23T04:40:52.630Z,26.63
2019-03-23T04:43:18.811Z,27.80
2019-03-23T04:45:45.072Z,23.53
2019-03-23T04:48:11.337Z,21.90
2019-03-23T04:50:37.529Z,21.87
2019-03-23T04:53:03.702Z,19.80
2019-03-23T04:55:29.853Z,14.27
2019-03-23T04:57:56.151Z,24.10
2019-03-23T05:00:22.311Z,18.33
2019-03-23T05:02:48.467Z,23.57
2019-03-23T05:05:14.666Z,16.87
2019-03-23T05:07:40.826Z,21.33
2019-03-23T05:10:08.390Z,23.13
2019-03-23T05:12:34.576Z,25.17
2019-03-23T05:15:00.736Z,21.10
2019-03-23T05:17:26.999Z,24.50
2019-03-23T05:19:53.203Z,21.03
2019-03-23T05:22:19.480Z,27.10
2019-03-23T05:24:45.689Z,20.33
2019-03-23T05:27:11.895Z,22.33
2019-03-23T05:29:38.388Z,29.77
2019-03-23T05:32:04.555Z,28.23
2019-03-23T05:34:30.769Z,23.50
2019-03-23T05:36:56.929Z,29.70
2019-03-23T05:39:23.106Z,22.10
2019-03-23T05:41:49.312Z,28.37
2019-03-23T05:44:15.479Z,21.07
2019-03-23T05:46:41.642Z,27.03
2019-03-23T05:49:07.832Z,22.67
2019-03-23T05:51:33.995Z,21.03
2019-03-23T05:54:00.250Z,20.67
2019-03-23T05:56:26.458Z,22.10
2019-03-23T05:58:52.630Z,23.43
2019-03-23T06:01:18.798Z,24.20
2019-03-23T06:03:45.015Z,17.83
2019-03-23T06:06:11.179Z,19.73
2019-03-23T06:08:37.342Z,24.20
2019-03-23T06:11:03.658Z,21.10
2019-03-23T06:13:29.936Z,19.00
2019-03-23T06:15:56.107Z,21.00
2019-03-23T06:18:23.210Z,19.63
2019-03-23T06:20:49.375Z,22.00
2019-03-23T06:23:15.534Z,19.43
2019-03-23T06:25:41.776Z,24.80
2019-03-23T06:28:07.957Z,31.57
2019-03-23T06:30:34.127Z,23.73
2019-03-23T06:33:00.429Z,23.77
2019-03-23T06:35:26.692Z,28.83
2019-03-23T06:37:52.844Z,24.83
2019-03-23T06:40:19.057Z,26.13
2019-03-23T06:42:45.209Z,30.87
2019-03-23T06:45:12.276Z,21.63
2019-03-23T06:47:38.588Z,24.53
2019-03-23T06:50:07.442Z,23.00
2019-03-23T06:52:33.603Z,22.70
2019-03-23T06:54:59.803Z,26.87
2019-03-23T06:57:26.067Z,23.73
2019-03-23T06:59:52.317Z,21.57
2019-03-23T07:02:18.536Z,21.13
2019-03-23T07:04:44.699Z,24.63
2019-03-23T07:07:10.965Z,21.40
2019-03-23T07:09:37.164Z,23.80
2019-03-23T07:12:03.516Z,21.43
2019-03-23T07:14:29.674Z,21.60
2019-03-23T07:16:55.874Z,21.20
2019-03-23T07:19:22.033Z,21.90
2019-03-23T07:21:48.301Z,16.33
2019-03-23T07:24:14.604Z,20.67
2019-03-23T07:26:40.881Z,20.17
2019-03-23T07:29:07.139Z,19.67
2019-03-23T07:31:33.337Z,19.63
2019-03-23T07:33:59.498Z,19.97
2019-03-23T07:36:25.658Z,18.67
2019-03-23T07:38:51.846Z,19.70
2019-03-23T07:41:18.003Z,21.03
2019-03-23T07:43:44.173Z,17.87
2019-03-23T07:46:10.373Z,20.23
2019-03-23T07:48:36.624Z,19.60
2019-03-23T07:51:03.828Z,17.47
2019-03-23T07:53:30.023Z,16.70
2019-03-23T07:55:56.177Z,24.13
2019-03-23T07:58:22.431Z,15.37
2019-03-23T08:00:48.622Z,19.77
2019-03-23T08:03:14.937Z,15.33
2019-03-23T08:05:42.126Z,15.80
2019-03-23T08:08:08.343Z,21.87
2019-03-23T08:10:34.619Z,17.63
2019-03-23T08:13:00.889Z,18.50
2019-03-23T08:15:27.083Z,19.83
2019-03-23T08:17:54.362Z,16.70
2019-03-23T08:20:20.622Z,19.70
2019-03-23T08:22:46.810Z,24.13
2019-03-23T08:25:12.975Z,21.23
2019-03-23T08:27:41.670Z,21.10
2019-03-23T08:30:09.726Z,22.50
2019-03-23T08:32:35.883Z,19.47
2019-03-23T08:35:06.212Z,22.17
2019-03-23T08:37:34.390Z,17.97
2019-03-23T08:40:00.460Z,19.43
2019-03-23T08:42:26.616Z,20.93
2019-03-23T08:44:52.804Z,15.80
2019-03-23T08:47:18.964Z,18.83
2019-03-23T08:49:45.122Z,16.03
2019-03-23T08:52:11.318Z,18.37
2019-03-23T08:54:37.484Z,15.73
2019-03-23T08:57:03.634Z,17.27
2019-03-23T08:59:29.828Z,16.60
2019-03-23T09:01:56.088Z,18.23
2019-03-23T09:04:22.248Z,18.90
2019-03-23T09:06:48.540Z,18.30
2019-03-23T09:09:14.698Z,15.80
2019-03-23T09:11:40.852Z,15.83
2019-03-23T09:14:07.056Z,16.07
2019-03-23T09:16:33.219Z,22.93
2019-03-23T09:18:59.381Z,22.10
2019-03-23T09:21:25.570Z,17.23
2019-03-23T09:23:51.729Z,17.60
2019-03-23T09:26:17.985Z,17.87
2019-03-23T09:28:44.171Z,17.13
2019-03-23T09:31:10.333Z,16.97
2019-03-23T09:33:36.592Z,14.43
2019-03-23T09:36:02.780Z,20.33
2019-03-23T09:38:29.040Z,16.20
2019-03-23T09:40:55.196Z,15.97
2019-03-23T09:43:21.389Z,15.50
2019-03-23T09:45:50.497Z,15.60
2019-03-23T09:48:16.711Z,16.67
2019-03-23T09:50:42.907Z,17.90
2019-03-23T09:53:09.063Z,19.47
2019-03-23T09:55:35.216Z,15.77
2019-03-23T09:58:01.502Z,14.40
2019-03-23T10:00:27.668Z,19.70
2019-03-23T10:02:53.828Z,18.53
2019-03-23T10:05:20.031Z,16.87
2019-03-23T10:07:46.188Z,14.00
2019-03-23T10:10:21.216Z,18.13
2019-03-23T10:12:40.680Z,15.27
2019-03-23T10:15:06.827Z,13.13
2019-03-23T10:17:32.984Z,20.60
2019-03-23T10:19:59.175Z,12.93
2019-03-23T10:22:25.332Z,12.30
2019-03-23T10:24:51.487Z,16.43
2019-03-23T10:27:17.673Z,18.83
2019-03-23T10:29:43.942Z,17.67
2019-03-23T10:32:10.110Z,16.57
2019-03-23T10:34:36.589Z,13.90
2019-03-23T10:37:02.748Z,16.03
2019-03-23T10:39:29.016Z,12.43
2019-03-23T10:41:55.199Z,16.63
2019-03-23T10:44:21.370Z,12.80
2019-03-23T10:46:47.524Z,17.37
2019-03-23T10:49:13.834Z,20.17
2019-03-23T10:51:39.998Z,19.63
2019-03-23T10:54:06.267Z,11.97
2019-03-23T10:56:32.561Z,12.47
2019-03-23T10:58:58.734Z,16.63
2019-03-23T11:01:24.982Z,15.60
2019-03-23T11:03:51.170Z,15.23
2019-03-23T11:06:17.433Z,18.47
2019-03-23T11:08:43.641Z,14.90
2019-03-23T11:11:09.827Z,14.93
2019-03-23T11:13:36.093Z,11.00
2019-03-23T11:16:02.257Z,16.83
2019-03-23T11:18:28.443Z,13.20
2019-03-23T11:20:54.706Z,16.60
2019-03-23T11:23:20.911Z,16.93
2019-03-23T11:25:47.208Z,18.50
2019-03-23T11:28:13.355Z,16.13
2019-03-23T11:30:39.775Z,16.33
2019-03-23T11:33:05.971Z,14.20
2019-03-23T11:35:32.127Z,16.07
2019-03-23T11:37:58.469Z,13.87
2019-03-23T11:40:24.878Z,18.80
2019-03-23T11:42:51.035Z,22.90
2019-03-23T11:45:17.198Z,24.20
2019-03-23T11:47:43.394Z,21.13
2019-03-23T11:50:10.252Z,23.40
2019-03-23T11:52:36.420Z,21.57
2019-03-23T11:55:04.837Z,23.17
2019-03-23T11:57:30.992Z,22.93
2019-03-23T11:59:57.144Z,20.43
2019-03-23T12:02:23.335Z,20.80
2019-03-23T12:04:49.497Z,19.27
2019-03-23T12:07:15.750Z,22.33
2019-03-23T12:09:41.943Z,20.93
2019-03-23T12:12:08.096Z,17.53
2019-03-23T12:14:34.360Z,20.77
2019-03-23T12:17:00.566Z,20.07
2019-03-23T12:19:26.721Z,17.40
2019-03-23T12:21:52.880Z,17.00
2019-03-23T12:24:19.167Z,17.13
2019-03-23T12:26:45.322Z,17.37
2019-03-23T12:29:11.474Z,15.43
2019-03-23T12:31:37.717Z,11.27
2019-03-23T12:34:03.872Z,16.90
2019-03-23T12:36:30.030Z,14.37
2019-03-23T12:38:56.222Z,15.40
2019-03-23T12:41:23.402Z,15.10
2019-03-23T12:43:49.839Z,13.87
2019-03-23T12:46:16.088Z,12.17
2019-03-23T12:48:42.252Z,14.37
2019-03-23T12:51:08.512Z,14.53
2019-03-23T12:53:34.705Z,12.00
2019-03-23T12:56:00.874Z,14.03
2019-03-23T12:58:27.037Z,12.97
2019-03-23T13:00:53.227Z,14.10
2019-03-23T13:03:19.379Z,13.03
2019-03-23T13:05:45.539Z,16.10
2019-03-23T13:08:11.837Z,12.40
2019-03-23T13:10:37.999Z,10.90
2019-03-23T13:13:04.262Z,11.47
2019-03-23T13:15:30.464Z,15.70
2019-03-23T13:17:56.622Z,11.13
2019-03-23T13:20:22.876Z,14.97
2019-03-23T13:22:49.173Z,12.90
2019-03-23T13:25:15.329Z,11.23
2019-03-23T13:27:42.297Z,10.70
2019-03-23T13:30:13.588Z,15.23
2019-03-23T13:32:39.757Z,12.00
2019-03-23T13:35:05.923Z,11.40
2019-03-23T13:37:32.116Z,11.87
2019-03-23T13:39:58.272Z,13.57
2019-03-23T13:42:24.431Z,15.20
2019-03-23T13:44:50.639Z,10.97
2019-03-23T13:47:16.802Z,12.60
2019-03-23T13:49:43.061Z,13.70
2019-03-23T13:52:09.250Z,12.00
2019-03-23T13:54:35.510Z,10.90
2019-03-23T13:57:01.669Z,12.97
2019-03-23T13:59:27.873Z,10.90
2019-03-23T14:01:54.025Z,11.90
2019-03-23T14:04:20.282Z,10.70
2019-03-23T14:06:46.528Z,11.47
2019-03-23T14:09:12.672Z,10.33
2019-03-23T14:11:38.832Z,12.30
2019-03-23T14:14:05.027Z,18.73
2019-03-23T14:16:31.203Z,12.77
2019-03-23T14:18:57.350Z,15.13
2019-03-23T14:21:23.540Z,9.37
2019-03-23T14:23:49.695Z,13.33
2019-03-23T14:26:15.964Z,12.30
2019-03-23T14:28:42.159Z,13.70
2019-03-23T14:31:08.545Z,13.57
2019-03-23T14:33:34.758Z,9.67
2019-03-23T14:36:00.951Z,10.83
2019-03-23T14:38:27.107Z,13.27
2019-03-23T14:40:53.259Z,10.50
2019-03-23T14:43:19.449Z,13.07
2019-03-23T14:45:45.611Z,9.63
2019-03-23T14:48:11.772Z,11.97
2019-03-23T14:50:37.974Z,13.13
2019-03-23T14:53:04.239Z,14.87
2019-03-23T14:55:30.391Z,15.37
2019-03-23T14:57:56.580Z,13.60
2019-03-23T15:00:28.153Z,12.90
2019-03-23T15:02:54.308Z,12.63
2019-03-23T15:05:20.497Z,12.80
2019-03-23T15:07:46.796Z,13.50
2019-03-23T15:10:13.013Z,15.53
2019-03-23T15:12:39.205Z,10.67
2019-03-23T15:15:05.976Z,13.17
2019-03-23T15:17:32.148Z,13.87
2019-03-23T15:19:58.441Z,12.37
2019-03-23T15:22:24.595Z,11.00
2019-03-23T15:24:50.757Z,13.20
2019-03-23T15:27:16.949Z,13.23
2019-03-23T15:29:43.508Z,15.47
2019-03-23T15:32:09.769Z,12.60
2019-03-23T15:34:35.968Z,12.37
2019-03-23T15:37:02.140Z,12.37
2019-03-23T15:39:28.297Z,12.47
2019-03-23T15:41:54.482Z,16.23
2019-03-23T15:44:20.750Z,12.60
2019-03-23T15:46:46.913Z,22.67
2019-03-23T15:49:13.104Z,9.50
2019-03-23T15:51:39.372Z,11.13
2019-03-23T15:54:05.548Z,9.90
2019-03-23T15:56:31.733Z,12.17
2019-03-23T15:58:57.885Z,14.90
2019-03-23T16:01:24.044Z,14.70
2019-03-23T16:03:50.239Z,15.07
2019-03-23T16:06:16.394Z,16.83
2019-03-23T16:08:42.555Z,13.07
2019-03-23T16:11:08.751Z,16.43
2019-03-23T16:13:34.928Z,14.23
2019-03-23T16:16:01.089Z,19.53
2019-03-23T16:18:27.385Z,16.30
2019-03-23T16:20:53.540Z,16.73
2019-03-23T16:23:19.705Z,17.23
2019-03-23T16:25:45.894Z,15.97
2019-03-23T16:28:12.055Z,19.90
2019-03-23T16:30:38.209Z,19.50
2019-03-23T16:33:04.400Z,16.43
2019-03-23T16:35:32.276Z,14.80
2019-03-23T16:37:58.436Z,12.93
2019-03-23T16:40:24.637Z,16.43
2019-03-23T16:42:50.892Z,16.33
2019-03-23T16:45:17.063Z,17.37
2019-03-23T16:47:43.258Z,13.40
2019-03-23T16:50:09.427Z,14.23
2019-03-23T16:52:37.000Z,20.47
2019-03-23T16:55:08.475Z,14.60
2019-03-23T16:57:34.735Z,13.87
2019-03-23T17:00:00.896Z,16.23
2019-03-23T17:02:27.084Z,16.67
2019-03-23T17:04:53.246Z,12.03
2019-03-23T17:07:19.410Z,12.80
2019-03-23T17:09:45.611Z,12.83
2019-03-23T17:12:11.868Z,15.50
2019-03-23T17:14:38.022Z,15.10
2019-03-23T17:17:04.244Z,20.65
2019-03-23T17:19:30.494Z,18.47
2019-03-23T17:21:56.755Z,20.27
2019-03-23T17:24:22.959Z,19.43
2019-03-23T17:26:49.120Z,15.50
2019-03-23T17:29:15.286Z,16.97
2019-03-23T17:31:41.801Z,12.07
2019-03-23T17:34:07.957Z,13.80
2019-03-23T17:36:34.211Z,11.73
2019-03-23T17:39:00.517Z,11.37
2019-03-23T17:41:26.674Z,13.33
2019-03-23T17:43:52.852Z,15.93
2019-03-23T17:46:19.045Z,13.80
2019-03-23T17:48:45.191Z,10.40
2019-03-23T17:51:11.354Z,12.63
2019-03-23T17:53:37.650Z,12.77
2019-03-23T17:56:03.813Z,13.90
2019-03-23T17:58:29.964Z,13.53
2019-03-23T18:00:56.252Z,13.23
2019-03-23T18:03:22.420Z,10.90
2019-03-23T18:05:48.574Z,15.17
2019-03-23T18:08:14.884Z,12.37
2019-03-23T18:10:41.041Z,10.80
2019-03-23T18:13:16.089Z,9.30
2019-03-23T18:15:35.386Z,13.33
2019-03-23T18:18:01.598Z,14.57
2019-03-23T18:20:27.756Z,9.90
2019-03-23T18:22:54.051Z,10.23
2019-03-23T18:25:20.219Z,11.30
2019-03-23T18:27:46.376Z,13.90
2019-03-23T18:30:33.005Z,14.90
2019-03-23T18:32:59.173Z,10.43
2019-03-23T18:35:25.323Z,12.40
2019-03-23T18:37:51.560Z,13.10
2019-03-23T18:40:17.816Z,11.43
2019-03-23T18:42:43.970Z,12.57
2019-03-23T18:45:10.160Z,12.70
2019-03-23T18:47:36.320Z,15.57
2019-03-23T18:50:04.488Z,12.10
2019-03-23T18:52:30.673Z,15.97
2019-03-23T18:54:56.835Z,19.50
2019-03-23T18:57:22.996Z,19.13
2019-03-23T18:59:49.185Z,12.67
2019-03-23T19:02:15.341Z,13.50
2019-03-23T19:04:41.495Z,11.10
2019-03-23T19:07:07.679Z,12.03
2019-03-23T19:09:33.842Z,16.13
2019-03-23T19:11:59.995Z,8.67
2019-03-23T19:14:26.293Z,12.17
2019-03-23T19:16:52.458Z,15.20
2019-03-23T19:19:18.640Z,18.63
2019-03-23T19:21:44.841Z,7.63
2019-03-23T19:24:10.997Z,8.10
2019-03-23T19:26:37.163Z,10.07
2019-03-23T19:29:03.351Z,9.50
2019-03-23T19:31:29.526Z,9.33
2019-03-23T19:33:55.689Z,14.20
2019-03-23T19:36:21.879Z,8.30
2019-03-23T19:38:48.976Z,11.37
2019-03-23T19:41:15.133Z,19.53
2019-03-23T19:43:48.625Z,19.97
2019-03-23T19:46:09.479Z,7.73
2019-03-23T19:48:35.642Z,10.55
2019-03-23T19:51:03.738Z,5.87
2019-03-23T19:53:29.907Z,7.50
2019-03-23T19:55:56.071Z,5.13
2019-03-23T19:58:22.257Z,7.17
2019-03-23T20:00:48.426Z,7.60
2019-03-23T20:03:14.583Z,6.87
2019-03-23T20:05:40.772Z,11.70
2019-03-23T20:08:06.947Z,8.17
2019-03-23T20:10:33.110Z,9.10
2019-03-23T20:12:59.288Z,10.50
2019-03-23T20:15:25.450Z,7.43
2019-03-23T20:17:51.609Z,9.03
2019-03-23T20:20:20.028Z,6.90
2019-03-23T20:22:46.477Z,5.83
2019-03-23T20:25:12.644Z,6.30
2019-03-23T20:27:38.839Z,7.53
2019-03-23T20:30:07.904Z,5.37
2019-03-23T20:32:34.289Z,9.40
2019-03-23T20:35:00.485Z,11.40
2019-03-23T20:37:26.638Z,10.77
2019-03-23T20:39:52.840Z,5.67
2019-03-23T20:42:19.033Z,6.83
2019-03-23T20:44:45.186Z,14.30
2019-03-23T20:47:11.443Z,7.90
2019-03-23T20:49:38.131Z,8.90
2019-03-23T20:52:04.328Z,11.77
2019-03-23T20:54:30.574Z,6.27
2019-03-23T20:56:56.759Z,8.73
2019-03-23T20:59:22.920Z,8.67
2019-03-23T21:01:49.200Z,6.00
2019-03-23T21:04:15.367Z,10.10
2019-03-23T21:06:41.535Z,11.40
2019-03-23T21:09:07.821Z,12.60
2019-03-23T21:11:34.736Z,14.40
2019-03-23T21:14:00.896Z,9.60
2019-03-23T21:16:27.053Z,8.00
2019-03-23T21:18:53.240Z,10.33
2019-03-23T21:21:19.507Z,10.30
2019-03-23T21:23:45.681Z,7.57
2019-03-23T21:26:11.972Z,6.60
2019-03-23T21:28:38.235Z,8.60
2019-03-23T21:31:04.393Z,6.77
2019-03-23T21:33:32.162Z,11.37
2019-03-23T21:35:58.642Z,7.47
2019-03-23T21:38:24.907Z,8.83
2019-03-23T21:40:51.104Z,9.67
2019-03-23T21:43:17.263Z,7.70
2019-03-23T21:45:43.416Z,8.67
2019-03-23T21:48:09.717Z,6.17
2019-03-23T21:50:46.822Z,10.97
2019-03-23T21:53:04.076Z,8.77
2019-03-23T21:55:30.249Z,7.97
2019-03-23T21:57:56.513Z,6.70
2019-03-23T22:00:28.565Z,14.07
2019-03-23T22:02:54.752Z,11.40
2019-03-23T22:05:20.921Z,14.40
2019-03-23T22:07:47.077Z,7.87
2019-03-23T22:10:13.688Z,11.87
2019-03-23T22:12:39.857Z,7.73
2019-03-23T22:15:07.421Z,11.07
2019-03-23T22:17:33.608Z,7.13
2019-03-23T22:19:59.775Z,6.10
2019-03-23T22:22:25.939Z,5.30
2019-03-23T22:24:52.140Z,11.13
2019-03-23T22:27:19.323Z,8.10
2019-03-23T22:29:45.683Z,7.30
2019-03-23T22:32:11.887Z,9.57
2019-03-23T22:34:38.047Z,9.77
2019-03-23T22:37:04.213Z,10.40
2019-03-23T22:39:30.409Z,12.83
2019-03-23T22:41:58.627Z,11.70
2019-03-23T22:44:24.793Z,7.90
2019-03-23T22:46:50.991Z,12.37
2019-03-23T22:49:17.166Z,9.10
2019-03-23T22:51:43.439Z,11.60
2019-03-23T22:54:09.655Z,12.33
2019-03-23T22:56:35.818Z,9.93
2019-03-23T22:59:02.091Z,11.03
2019-03-23T23:01:28.283Z,8.07
2019-03-23T23:03:54.452Z,17.40
2019-03-23T23:06:20.723Z,11.57
2019-03-23T23:08:46.928Z,11.93
2019-03-23T23:11:13.094Z,6.97
2019-03-23T23:13:39.357Z,11.27
2019-03-23T23:16:05.564Z,8.83
2019-03-23T23:18:31.834Z,12.63
2019-03-23T23:20:57.997Z,11.53
2019-03-23T23:23:24.293Z,14.13
2019-03-23T23:25:50.458Z,16.60
2019-03-23T23:28:17.855Z,12.47
2019-03-23T23:30:44.458Z,13.43
2019-03-23T23:33:10.635Z,10.67
2019-03-23T23:35:36.802Z,11.27
2019-03-23T23:38:03.005Z,10.20
2019-03-23T23:40:29.169Z,12.90
2019-03-23T23:42:55.340Z,22.93
2019-03-23T23:45:21.542Z,12.40
2019-03-23T23:47:47.716Z,6.63
2019-03-23T23:50:13.877Z,7.03
2019-03-23T23:52:40.068Z,12.03
2019-03-23T23:55:06.428Z,12.10
2019-03-23T23:57:32.592Z,8.53
2019-03-23T23:59:58.794Z,10.80
